Time;durP1;ratioP1;P1;durP2;ratioP2;P2;SDS_P1;SDS_P2;PMS_P1;PMS_P2;Temp;Humidity;BMP_temperature;BMP_pressure;BME280_temperature;BME280_humidity;BME280_pressure;Samples;Min_cycle;Max_cycle;Signal;HPM_P1;HPM_P2
2022/06/05 00:03:54;;;;;;;2.85;2.10;;;17.30;1.00;;;;;;10231793;28;83314;-50
2022/06/05 00:09:03;;;;;;;3.17;2.30;;;17.20;1.00;;;;;;10244663;28;83712;-52
2022/06/05 00:14:04;;;;;;;3.88;2.17;;;17.20;1.00;;;;;;10245161;28;83359;-50
2022/06/05 00:19:04;;;;;;;3.33;2.00;;;17.10;1.00;;;;;;10230561;28;83873;-53
2022/06/05 00:24:05;;;;;;;2.75;1.45;;;17.10;1.00;;;;;;10208884;28;83493;-52
2022/06/05 00:29:22;;;;;;;2.50;2.08;;;17.10;1.00;;;;;;10211453;28;83278;-53
2022/06/05 00:34:23;;;;;;;3.15;2.30;;;17.00;1.00;;;;;;10211890;28;83241;-53
2022/06/05 00:39:40;;;;;;;3.92;2.45;;;16.90;1.00;;;;;;10210674;28;84505;-53
2022/06/05 00:44:54;;;;;;;2.25;1.70;;;16.80;1.00;;;;;;10210766;28;83319;-49
2022/06/05 00:50:08;;;;;;;2.92;1.90;;;16.80;45.10;;;;;;10210542;28;83619;-53
2022/06/05 00:55:10;;;;;;;4.13;2.10;;;16.70;99.90;;;;;;10250464;28;83423;-54
2022/06/05 01:00:18;;;;;;;2.60;2.10;;;16.70;99.90;;;;;;10250003;28;84008;-52
2022/06/05 01:05:20;;;;;;;3.55;1.88;;;16.60;99.90;;;;;;10250025;28;84019;-53
2022/06/05 01:10:25;;;;;;;2.78;1.98;;;16.50;99.90;;;;;;10213706;28;84075;-54
2022/06/05 01:15:35;;;;;;;4.38;2.40;;;16.40;99.90;;;;;;10207783;28;84182;-48
2022/06/05 01:20:46;;;;;;;2.72;2.10;;;16.30;99.90;;;;;;10209114;28;83716;-52
2022/06/05 01:26:36;;;;;;;3.60;2.25;;;16.30;99.90;;;;;;10210318;28;83996;-50
2022/06/05 01:31:54;;;;;;;2.38;1.67;;;16.20;99.90;;;;;;10195273;28;84154;-55
2022/06/05 01:37:00;;;;;;;2.58;2.00;;;16.20;99.90;;;;;;10212270;28;84165;-45
2022/06/05 01:42:06;;;;;;;3.03;2.08;;;16.20;99.90;;;;;;10209707;28;84151;-53
2022/06/05 01:47:17;;;;;;;3.67;2.17;;;16.10;99.90;;;;;;10210662;28;83419;-53
2022/06/05 01:52:23;;;;;;;5.15;2.20;;;16.00;1.00;;;;;;10209709;28;83482;-53
2022/06/05 01:57:26;;;;;;;5.07;2.40;;;16.00;1.00;;;;;;10208627;28;83407;-53
2022/06/05 02:02:34;;;;;;;3.60;2.33;;;15.90;1.00;;;;;;10220789;28;84142;-52
2022/06/05 02:07:43;;;;;;;4.35;2.40;;;15.80;1.00;;;;;;10248152;28;83349;-52
2022/06/05 02:12:43;;;;;;;4.07;2.75;;;15.70;1.00;;;;;;10249353;28;84121;-50
2022/06/05 02:17:45;;;;;;;4.85;2.40;;;15.70;1.00;;;;;;10246136;28;83720;-48
2022/06/05 02:22:49;;;;;;;2.88;2.42;;;15.70;1.00;;;;;;10247516;28;84225;-56
2022/06/05 02:27:56;;;;;;;4.55;2.58;;;15.70;1.00;;;;;;10247743;28;83865;-53
2022/06/05 02:33:19;;;;;;;3.70;2.58;;;15.70;1.00;;;;;;10246495;28;84074;-53
2022/06/05 02:38:20;;;;;;;4.53;2.47;;;15.60;1.00;;;;;;10210534;28;83977;-56
2022/06/05 02:43:27;;;;;;;5.25;2.65;;;15.50;1.00;;;;;;10206919;28;83256;-52
2022/06/05 02:48:33;;;;;;;4.55;2.83;;;15.50;1.00;;;;;;10208214;28;83371;-50
2022/06/05 02:53:53;;;;;;;3.85;2.47;;;15.40;1.00;;;;;;10231526;28;84124;-52
2022/06/05 02:58:58;;;;;;;3.72;2.25;;;15.50;1.00;;;;;;10246390;28;83960;-52
2022/06/05 03:03:59;;;;;;;3.90;2.83;;;15.50;1.00;;;;;;10246814;28;84128;-50
2022/06/05 03:09:00;;;;;;;3.55;2.70;;;15.40;1.00;;;;;;10226153;28;84117;-50
2022/06/05 03:14:01;;;;;;;5.35;3.08;;;15.40;1.00;;;;;;10265508;28;83807;-53
2022/06/05 03:19:02;;;;;;;6.03;2.83;;;15.40;1.00;;;;;;10286848;28;83245;-49
2022/06/05 03:24:05;;;;;;;5.90;3.60;;;15.40;1.00;;;;;;10260891;28;84048;-51
2022/06/05 03:29:07;;;;;;;5.90;4.15;;;15.40;1.00;;;;;;10254367;28;83946;-53
2022/06/05 03:34:08;;;;;;;3.58;2.85;;;15.40;1.00;;;;;;10286320;28;84025;-51
2022/06/05 03:39:09;;;;;;;4.07;3.00;;;15.50;1.00;;;;;;10286012;28;83206;-52
2022/06/05 03:44:12;;;;;;;4.10;3.10;;;15.50;1.00;;;;;;10206556;28;84117;-53
2022/06/05 03:49:13;;;;;;;3.67;3.13;;;15.60;1.00;;;;;;10204972;28;83203;-53
2022/06/05 03:54:14;;;;;;;3.97;2.80;;;15.70;1.00;;;;;;10205104;28;83579;-49
2022/06/05 03:59:14;;;;;;;3.83;3.10;;;15.80;1.00;;;;;;10204301;28;83675;-52
2022/06/05 04:04:15;;;;;;;3.83;3.17;;;15.80;1.00;;;;;;10228567;28;84205;-53
2022/06/05 04:09:15;;;;;;;4.95;3.25;;;16.00;1.00;;;;;;10245304;28;83327;-52
2022/06/05 04:14:16;;;;;;;3.35;2.70;;;16.00;1.00;;;;;;10274043;22;85357;-51
2022/06/05 04:19:17;;;;;;;4.63;3.08;;;16.10;1.00;;;;;;10280692;28;84047;-48
2022/06/05 04:24:17;;;;;;;4.55;3.25;;;16.30;1.00;;;;;;10265541;28;84188;-51
2022/06/05 04:29:18;;;;;;;4.68;3.45;;;16.30;1.00;;;;;;10265445;28;84083;-49
2022/06/05 04:34:21;;;;;;;3.58;3.20;;;16.40;1.00;;;;;;10282422;28;83954;-52
2022/06/05 04:39:22;;;;;;;5.32;3.05;;;16.50;1.00;;;;;;10267037;28;83308;-49
2022/06/05 04:44:22;;;;;;;3.65;2.72;;;16.60;1.00;;;;;;10283620;28;84940;-52
2022/06/05 04:49:23;;;;;;;4.60;3.05;;;16.80;1.00;;;;;;10285715;28;84246;-49
2022/06/05 04:54:23;;;;;;;4.25;2.63;;;16.90;1.00;;;;;;10226796;28;83690;-50
2022/06/05 04:59:24;;;;;;;4.68;3.20;;;17.00;1.00;;;;;;10209303;28;84167;-49
2022/06/05 05:04:24;;;;;;;3.85;2.95;;;17.10;1.00;;;;;;10275979;28;84117;-47
2022/06/05 05:09:25;;;;;;;3.53;2.85;;;17.30;1.00;;;;;;10271798;28;83728;-50
2022/06/05 05:14:26;;;;;;;3.45;2.80;;;17.30;1.00;;;;;;10251259;28;83797;-49
2022/06/05 05:19:26;;;;;;;3.30;3.00;;;17.40;1.00;;;;;;10251281;28;83837;-52
2022/06/05 05:24:27;;;;;;;5.10;3.70;;;17.60;99.90;;;;;;10253766;28;83430;-50
2022/06/05 05:29:28;;;;;;;4.28;3.08;;;17.70;99.90;;;;;;10210677;28;83989;-48
2022/06/05 05:34:28;;;;;;;3.80;3.13;;;17.80;99.90;;;;;;10208206;28;85387;-48
2022/06/05 05:44:51;;;;;;;3.72;3.10;;;18.00;99.90;;;;;;10246060;28;83825;-48
2022/06/05 05:49:57;;;;;;;3.60;2.90;;;18.00;99.90;;;;;;10247311;28;83766;-47
2022/06/05 05:54:59;;;;;;;4.07;3.17;;;18.20;99.90;;;;;;10250052;28;83786;-51
2022/06/05 06:00:00;;;;;;;3.13;2.83;;;18.40;99.90;;;;;;10241388;28;83607;-50
2022/06/05 06:05:01;;;;;;;4.28;2.80;;;18.60;99.90;;;;;;10242442;28;83897;-51
2022/06/05 06:10:02;;;;;;;4.07;3.20;;;18.80;99.90;;;;;;10226635;28;85932;-47
2022/06/05 06:15:04;;;;;;;3.17;2.88;;;18.90;99.90;;;;;;10228201;28;83956;-47
2022/06/05 06:20:05;;;;;;;5.07;3.45;;;19.00;99.90;;;;;;10226411;28;83717;-52
2022/06/05 06:25:07;;;;;;;3.55;3.25;;;19.20;99.90;;;;;;10227572;28;84061;-48
2022/06/05 06:30:08;;;;;;;3.40;3.05;;;19.40;64.50;;;;;;10228357;28;83759;-47
2022/06/05 06:35:09;;;;;;;4.32;3.50;;;19.60;1.00;;;;;;10233861;28;84084;-46
2022/06/05 06:40:10;;;;;;;3.63;3.15;;;19.70;1.00;;;;;;10240282;28;83887;-50
2022/06/05 06:45:11;;;;;;;4.43;3.28;;;19.70;1.00;;;;;;10219638;28;84136;-50
2022/06/05 06:50:12;;;;;;;4.88;3.40;;;19.90;1.00;;;;;;10222281;28;83907;-49
2022/06/05 06:55:16;;;;;;;4.60;3.88;;;20.40;1.00;;;;;;10225034;28;83864;-49
2022/06/05 07:00:18;;;;;;;3.67;3.38;;;20.40;1.00;;;;;;10220383;28;84184;-50
2022/06/05 07:05:19;;;;;;;5.10;3.45;;;20.70;1.00;;;;;;10236355;28;85686;-49
2022/06/05 07:10:19;;;;;;;4.28;3.45;;;20.70;1.00;;;;;;10231379;28;83836;-48
2022/06/05 07:15:20;;;;;;;8.07;4.45;;;20.80;1.00;;;;;;10220270;28;84126;-54
2022/06/05 07:20:21;;;;;;;4.40;4.00;;;21.10;1.00;;;;;;10242667;28;84285;-48
2022/06/05 07:25:21;;;;;;;6.57;4.13;;;21.10;1.00;;;;;;10236278;28;83940;-64
2022/06/05 07:30:23;;;;;;;4.75;3.90;;;21.20;1.00;;;;;;10225646;28;83449;-62
2022/06/05 07:35:24;;;;;;;5.35;4.10;;;21.20;1.00;;;;;;10201422;28;86393;-61
2022/06/05 07:40:24;;;;;;;4.82;4.30;;;21.20;1.00;;;;;;10206968;28;83436;-63
2022/06/05 07:45:25;;;;;;;6.88;5.00;;;21.00;1.00;;;;;;10243726;28;84526;-63
2022/06/05 07:50:25;;;;;;;4.30;3.90;;;21.10;1.00;;;;;;10252105;28;84142;-55
2022/06/05 07:55:26;;;;;;;4.93;3.88;;;21.10;1.00;;;;;;10230302;28;84489;-59
2022/06/05 08:00:27;;;;;;;4.88;4.38;;;21.30;1.00;;;;;;10222160;28;84825;-56
2022/06/05 08:05:27;;;;;;;5.28;4.40;;;21.40;1.00;;;;;;10259566;28;84280;-49
2022/06/05 08:10:28;;;;;;;4.82;4.32;;;21.40;1.00;;;;;;10271675;28;83910;-49
2022/06/05 08:15:29;;;;;;;4.07;3.70;;;21.40;1.00;;;;;;10284182;28;83941;-49
2022/06/05 08:20:29;;;;;;;6.25;4.68;;;21.60;1.00;;;;;;10242539;28;84222;-48
2022/06/05 08:25:30;;;;;;;5.28;4.22;;;21.70;1.00;;;;;;10229961;28;83912;-62
2022/06/05 08:30:31;;;;;;;5.50;4.15;;;22.00;1.00;;;;;;10218569;28;83942;-56
2022/06/05 08:35:31;;;;;;;5.30;4.55;;;22.30;1.00;;;;;;10228691;28;84474;-57
2022/06/05 08:46:12;;;;;;;5.30;4.45;;;22.80;99.90;;;;;;10236018;28;83608;-60
2022/06/05 08:51:29;;;;;;;5.15;4.47;;;22.90;99.90;;;;;;10231331;28;84078;-48
2022/06/05 08:56:38;;;;;;;5.35;4.68;;;22.80;99.90;;;;;;10256960;28;84241;-51
2022/06/05 09:01:51;;;;;;;4.72;4.22;;;23.10;51.20;;;;;;10255754;28;84159;-49
2022/06/05 09:06:57;;;;;;;5.07;4.45;;;23.30;1.00;;;;;;10244841;28;85006;-62
2022/06/05 09:12:06;;;;;;;5.10;4.60;;;23.30;1.00;;;;;;10250442;28;84218;-65
2022/06/05 09:17:14;;;;;;;5.03;4.63;;;23.80;99.90;;;;;;10236830;28;83404;-62
2022/06/05 09:22:18;;;;;;;5.13;4.53;;;24.60;99.90;;;;;;10240484;28;84258;-62
2022/06/05 09:28:03;;;;;;;5.28;4.53;;;25.20;1.00;;;;;;10254627;28;83462;-64
2022/06/05 09:33:35;;;;;;;4.78;4.38;;;26.20;1.00;;;;;;10230813;28;83516;-61
2022/06/05 09:38:46;;;;;;;4.18;3.88;;;27.30;1.00;;;;;;10233430;28;85881;-56
2022/06/05 09:44:02;;;;;;;5.40;4.53;;;27.20;99.90;;;;;;10241207;28;83399;-60
2022/06/05 09:49:18;;;;;;;5.93;5.35;;;27.50;1.00;;;;;;10221567;28;85225;-62
2022/06/05 09:54:31;;;;;;;4.53;3.97;;;26.90;1.00;;;;;;10250138;28;84278;-63
2022/06/05 09:59:44;;;;;;;4.70;4.30;;;26.30;1.00;;;;;;10240611;28;83706;-59
2022/06/05 10:04:48;;;;;;;4.70;4.30;;;26.00;1.00;;;;;;10224199;28;84381;-62
2022/06/05 10:09:49;;;;;;;5.03;4.38;;;25.50;99.90;;;;;;10222704;28;85151;-62
2022/06/05 10:14:59;;;;;;;4.50;4.10;;;25.00;1.00;;;;;;10262935;22;83947;-63
2022/06/05 10:20:34;;;;;;;4.35;3.95;;;24.80;99.90;;;;;;10248865;28;84146;-66
2022/06/05 10:25:37;;;;;;;4.38;4.05;;;24.80;1.00;;;;;;10254776;28;84192;-60
2022/06/05 10:30:56;;;;;;;4.38;3.97;;;24.80;1.00;;;;;;10256071;28;84005;-63
2022/06/05 10:36:17;;;;;;;4.90;4.32;;;24.70;99.90;;;;;;10262567;28;84648;-62
2022/06/05 10:41:46;;;;;;;4.40;4.00;;;24.50;99.90;;;;;;10259008;28;84273;-60
2022/06/05 10:47:12;;;;;;;4.30;3.90;;;24.30;1.00;;;;;;10258702;28;84224;-61
2022/06/05 10:52:30;;;;;;;4.45;4.05;;;24.00;99.90;;;;;;10247550;28;83411;-56
2022/06/05 10:57:39;;;;;;;5.78;4.22;;;23.70;1.00;;;;;;10255695;28;84368;-52
2022/06/05 11:02:42;;;;;;;6.28;4.13;;;23.70;99.90;;;;;;10251146;28;86305;-57
2022/06/05 11:08:10;;;;;;;5.45;4.13;;;23.70;1.00;;;;;;10259330;28;84124;-52
2022/06/05 11:18:53;;;;;;;4.03;3.63;;;23.50;1.00;;;;;;10246297;28;83954;-62
2022/06/05 11:23:57;;;;;;;4.60;4.18;;;23.50;1.00;;;;;;10245511;28;84142;-61
2022/06/05 11:29:05;;;;;;;4.55;4.15;;;23.30;99.90;;;;;;10220260;28;85242;-62
2022/06/05 11:34:39;;;;;;;4.53;4.13;;;22.90;1.00;;;;;;10242001;28;84133;-58
2022/06/05 11:40:04;;;;;;;4.80;4.30;;;22.80;1.00;;;;;;10256082;28;83537;-60
2022/06/05 11:45:28;;;;;;;4.60;4.20;;;22.70;1.00;;;;;;10254219;28;83804;-63
2022/06/05 11:50:44;;;;;;;6.97;5.43;;;22.70;1.00;;;;;;10246181;28;85141;-61
2022/06/05 11:55:53;;;;;;;4.32;3.92;;;22.90;1.00;;;;;;10256467;28;83457;-59
2022/06/05 12:01:03;;;;;;;4.63;4.13;;;22.80;1.00;;;;;;10245073;28;84214;-56
2022/06/05 12:06:09;;;;;;;4.88;4.10;;;22.70;97.90;;;;;;10253180;28;85131;-54
2022/06/05 12:11:16;;;;;;;5.13;4.00;;;22.50;29.00;;;;;;10230242;28;83464;-52
2022/06/05 12:16:44;;;;;;;3.92;3.53;;;22.30;99.90;;;;;;10243650;28;84813;-52
2022/06/05 12:22:00;;;;;;;4.50;3.78;;;21.80;1.00;;;;;;10255639;28;84153;-52
2022/06/05 12:27:10;;;;;;;4.50;4.10;;;21.00;1.00;;;;;;10252861;28;83465;-52
2022/06/05 12:32:14;;;;;;;3.78;3.47;;;20.40;1.00;;;;;;10263737;28;85647;-55
2022/06/05 12:37:21;;;;;;;4.85;3.67;;;20.20;1.00;;;;;;10254839;28;84010;-57
2022/06/05 12:42:27;;;;;;;4.22;3.83;;;20.10;1.00;;;;;;10248805;28;84197;-54
2022/06/05 12:48:06;;;;;;;3.83;3.47;;;20.30;1.00;;;;;;10271968;28;86244;-53
2022/06/05 12:53:48;;;;;;;4.93;3.88;;;20.60;5.00;;;;;;10260479;28;84143;-54
2022/06/05 12:59:00;;;;;;;5.57;4.10;;;20.70;5.30;;;;;;10241052;28;86379;-55
2022/06/05 13:04:20;;;;;;;5.40;4.90;;;20.80;1.00;;;;;;10246072;28;84920;-56
2022/06/05 13:09:48;;;;;;;5.47;4.75;;;20.80;1.00;;;;;;10263669;28;84255;-58
2022/06/05 13:15:12;;;;;;;5.50;5.00;;;20.90;5.70;;;;;;10261929;28;83412;-52
2022/06/05 13:20:39;;;;;;;5.57;5.03;;;20.90;1.00;;;;;;10246729;28;84265;-50
2022/06/05 13:26:03;;;;;;;5.63;5.13;;;20.90;1.00;;;;;;10245697;28;84312;-55
2022/06/05 13:31:20;;;;;;;6.03;5.43;;;21.00;1.00;;;;;;10248636;28;85582;-50
2022/06/05 13:36:29;;;;;;;6.05;5.45;;;21.20;1.00;;;;;;10255632;28;84083;-56
2022/06/05 13:42:02;;;;;;;7.57;5.97;;;21.40;1.00;;;;;;10249205;28;84028;-53
2022/06/05 13:47:27;;;;;;;6.47;5.88;;;21.70;1.00;;;;;;10215003;28;84464;-53
2022/06/05 13:52:28;;;;;;;6.90;5.90;;;21.60;1.00;;;;;;10244667;28;85685;-53
2022/06/05 13:57:37;;;;;;;6.07;5.47;;;21.60;1.00;;;;;;10244329;28;84102;-51
2022/06/05 14:02:44;;;;;;;6.72;6.05;;;21.40;1.00;;;;;;10254030;28;84367;-64
2022/06/05 14:07:51;;;;;;;6.43;5.78;;;21.50;1.00;;;;;;10260266;28;85884;-52
2022/06/05 14:13:06;;;;;;;7.07;6.38;;;21.70;1.00;;;;;;10252024;28;84533;-53
2022/06/05 14:18:24;;;;;;;7.43;6.53;;;21.80;1.00;;;;;;10258834;28;84212;-62
2022/06/05 14:23:27;;;;;;;6.53;5.80;;;21.80;1.00;;;;;;10249036;28;83474;-64
2022/06/05 14:28:39;;;;;;;6.40;5.15;;;22.00;1.00;;;;;;10245580;28;83451;-63
2022/06/05 14:33:46;;;;;;;6.55;5.45;;;22.00;1.00;;;;;;10241794;28;84148;-55
2022/06/05 14:38:57;;;;;;;6.22;5.63;;;21.90;1.00;;;;;;10243964;28;84168;-52
2022/06/05 14:44:10;;;;;;;5.80;5.30;;;21.90;1.00;;;;;;10252638;28;83414;-58
2022/06/05 14:49:34;;;;;;;5.43;4.93;;;21.80;1.00;;;;;;10251018;28;83451;-61
2022/06/05 15:00:17;;;;;;;6.72;5.75;;;21.80;1.00;;;;;;10253140;28;83429;-62
2022/06/05 15:05:24;;;;;;;6.47;5.80;;;21.70;1.00;;;;;;10249754;28;83884;-63
2022/06/05 15:10:31;;;;;;;6.03;5.43;;;21.70;1.00;;;;;;10249120;28;84178;-63
2022/06/05 15:15:35;;;;;;;8.43;5.45;;;21.60;1.00;;;;;;10247224;28;86287;-63
2022/06/05 15:20:36;;;;;;;6.13;5.50;;;21.60;1.00;;;;;;10247232;28;83754;-63
2022/06/05 15:25:47;;;;;;;6.32;5.70;;;21.60;1.00;;;;;;10247389;28;83495;-62
2022/06/05 15:31:05;;;;;;;6.30;5.68;;;21.60;1.00;;;;;;10248645;28;87006;-62
2022/06/05 15:36:54;;;;;;;7.60;6.53;;;21.50;1.00;;;;;;10248038;28;84395;-62
2022/06/05 15:42:03;;;;;;;7.53;6.28;;;21.20;11.40;;;;;;10181250;28;84157;-62
2022/06/05 15:47:17;;;;;;;7.38;6.47;;;20.90;43.80;;;;;;10245616;28;83496;-63
2022/06/05 15:52:31;;;;;;;7.70;6.75;;;20.60;99.90;;;;;;10246514;28;85481;-63
2022/06/05 16:03:23;;;;;;;7.60;6.50;;;20.10;99.90;;;;;;10102886;28;85384;-53
2022/06/05 16:08:55;;;;;;;8.07;7.25;;;20.00;99.90;;;;;;10207990;28;85324;-54
2022/06/05 16:14:13;;;;;;;7.85;6.97;;;19.80;99.90;;;;;;10268144;23;84674;-60
2022/06/05 16:19:24;;;;;;;9.20;8.00;;;19.70;99.90;;;;;;10279176;28;86171;-61
2022/06/05 16:24:43;;;;;;;13.10;9.25;;;19.70;99.90;;;;;;10286908;28;85608;-61
2022/06/05 16:29:46;;;;;;;9.77;8.43;;;19.80;99.90;;;;;;10279224;28;83471;-60
2022/06/05 16:40:19;;;;;;;8.52;7.68;;;19.80;99.90;;;;;;10281736;28;84597;-62
2022/06/05 16:45:29;;;;;;;9.23;7.82;;;19.90;99.90;;;;;;10286098;28;84552;-59
2022/06/05 16:50:50;;;;;;;10.18;8.13;;;20.00;99.90;;;;;;10275192;28;84808;-59
2022/06/05 16:55:56;;;;;;;9.10;7.60;;;20.20;99.90;;;;;;10278450;28;86141;-60
2022/06/05 17:01:08;;;;;;;9.10;7.25;;;20.30;99.90;;;;;;10303892;28;84622;-62
2022/06/05 17:06:38;;;;;;;8.45;7.55;;;20.40;99.90;;;;;;10299044;28;84374;-61
2022/06/05 17:11:41;;;;;;;8.63;7.32;;;20.60;99.90;;;;;;10295117;28;83596;-59
2022/06/05 17:17:14;;;;;;;8.93;7.22;;;20.70;99.90;;;;;;10314896;28;84361;-59
2022/06/05 17:22:21;;;;;;;7.78;6.97;;;20.60;99.90;;;;;;10303649;28;84059;-60
2022/06/05 17:27:39;;;;;;;9.73;7.38;;;20.60;99.90;;;;;;10290768;28;85488;-61
2022/06/05 17:33:05;;;;;;;9.27;7.90;;;20.50;99.90;;;;;;10305457;28;83407;-62
2022/06/05 17:38:22;;;;;;;8.68;7.65;;;20.40;99.90;;;;;;10311340;28;84206;-60
2022/06/05 17:43:43;;;;;;;9.35;7.03;;;20.50;99.90;;;;;;10282770;28;83643;-63
2022/06/05 17:49:02;;;;;;;8.25;7.45;;;20.30;99.90;;;;;;10263795;28;83386;-57
2022/06/05 17:54:13;;;;;;;9.30;7.50;;;20.30;99.90;;;;;;10301903;28;84299;-61
2022/06/05 17:59:40;;;;;;;9.98;8.75;;;20.40;99.90;;;;;;10263485;28;86471;-62
2022/06/05 18:04:41;;;;;;;24.83;14.10;;;20.30;99.90;;;;;;10269243;28;86126;-59
2022/06/05 18:09:54;;;;;;;11.48;7.78;;;20.20;99.90;;;;;;10267065;28;83727;-60
2022/06/05 18:14:56;;;;;;;9.77;8.23;;;20.00;99.90;;;;;;10279792;28;84157;-63
2022/06/05 18:19:58;;;;;;;7.78;4.97;;;19.80;99.90;;;;;;10257503;28;83964;-58
2022/06/05 18:25:19;;;;;;;5.40;3.05;;;19.00;99.90;;;;;;10269312;28;83541;-65
2022/06/05 18:30:30;;;;;;;2.78;2.35;;;18.50;99.90;;;;;;10286118;28;84153;-57
2022/06/05 18:40:57;;;;;;;2.70;2.13;;;18.20;99.90;;;;;;10286008;28;85377;-53
2022/06/05 18:46:02;;;;;;;2.60;1.77;;;18.10;99.90;;;;;;10286626;28;84253;-59
2022/06/05 18:51:18;;;;;;;3.28;2.13;;;18.10;99.90;;;;;;10270268;28;84232;-59
2022/06/05 18:56:37;;;;;;;3.08;1.88;;;18.10;99.90;;;;;;10286646;28;83504;-59
2022/06/05 19:01:38;;;;;;;2.47;2.05;;;18.00;99.90;;;;;;10292765;28;83461;-57
2022/06/05 19:06:42;;;;;;;3.55;2.60;;;18.00;99.90;;;;;;10280626;28;84410;-57
2022/06/05 19:11:53;;;;;;;2.83;2.60;;;18.10;99.90;;;;;;10288683;28;83849;-63
2022/06/05 19:17:06;;;;;;;4.80;3.00;;;18.10;99.90;;;;;;10285246;28;84501;-61
2022/06/05 19:22:19;;;;;;;6.25;4.45;;;18.00;99.90;;;;;;10291228;28;83237;-62
2022/06/05 19:27:33;;;;;;;4.90;3.92;;;18.00;99.90;;;;;;10259749;28;84781;-61
2022/06/05 19:32:35;;;;;;;;;;;17.90;99.90;;;;;;10248931;28;85193;-61
2022/06/05 19:43:05;;;;;;;;;;;17.80;99.90;;;;;;10273026;28;84119;-60
2022/06/05 19:48:17;;;;;;;;;;;17.70;99.90;;;;;;10281960;28;84504;-62
2022/06/05 19:53:20;;;;;;;;;;;17.60;99.90;;;;;;10288669;28;83285;-61
2022/06/05 19:58:23;;;;;;;;;;;17.50;99.90;;;;;;10288989;28;83142;-61
2022/06/05 20:03:23;;;;;;;;;;;17.40;99.90;;;;;;10287999;28;84126;-64
2022/06/05 20:08:43;;;;;;;;;;;17.40;99.90;;;;;;10289890;28;84479;-60
2022/06/05 20:13:46;;;;;;;;;;;17.30;99.90;;;;;;10298623;28;83228;-60
2022/06/05 20:18:47;;;;;;;;;;;17.30;99.90;;;;;;10289578;28;83175;-61
2022/06/05 20:23:53;;;;;;;;;;;17.30;99.90;;;;;;10288702;28;83903;-61
2022/06/05 20:29:09;;;;;;;;;;;17.30;99.90;;;;;;10282902;28;84064;-63
2022/06/05 20:34:26;;;;;;;;;;;17.40;99.90;;;;;;10251567;28;84189;-59
2022/06/05 20:39:34;;;;;;;;;;;17.30;99.90;;;;;;10293312;28;84146;-59
2022/06/05 20:44:39;;;;;;;;;;;17.40;99.90;;;;;;10296403;28;86390;-61
2022/06/05 20:49:47;;;;;;;;;;;17.40;99.90;;;;;;10282714;28;83981;-62
2022/06/05 20:54:49;;;;;;;;;;;17.30;99.90;;;;;;10299580;28;84047;-60
2022/06/05 20:59:50;;;;;;;;;;;17.30;99.90;;;;;;10310227;28;84732;-60
2022/06/05 21:10:10;;;;;;;;;;;17.20;99.90;;;;;;10280390;28;83452;-61
2022/06/05 21:20:34;;;;;;;;;;;16.90;99.90;;;;;;10301367;28;84136;-63
2022/06/05 21:25:42;;;;;;;;;;;16.70;99.90;;;;;;10300867;28;83384;-61
2022/06/05 21:30:44;;;;;;;;;;;16.70;99.90;;;;;;10289380;28;84171;-61
2022/06/05 21:35:56;;;;;;;;;;;16.60;99.90;;;;;;10291940;28;84065;-62
2022/06/05 21:41:34;;;;;;;;;;;16.60;99.90;;;;;;10291458;28;84169;-61
2022/06/05 21:46:37;;;;;;;;;;;16.60;99.90;;;;;;10296690;28;83428;-59
2022/06/05 21:51:37;;;;;;;;;;;16.60;99.90;;;;;;10285717;28;83249;-60
2022/06/05 21:56:43;;;;;;;;;;;16.60;99.90;;;;;;10285653;28;83244;-60
2022/06/05 22:01:43;;;;;;;;;;;16.50;99.90;;;;;;10289194;28;85532;-58
2022/06/05 22:06:44;;;;;;;;;;;16.60;99.90;;;;;;10305910;28;83969;-58
2022/06/05 22:11:44;;;;;;;;;;;16.50;99.90;;;;;;10286590;28;83369;-60
2022/06/05 22:16:46;;;;;;;;;;;16.60;99.90;;;;;;10301097;22;83545;-51
2022/06/05 22:21:52;;;;;;;;;;;16.60;99.90;;;;;;10264009;28;83344;-54
2022/06/05 22:26:53;;;;;;;;;;;16.60;99.90;;;;;;10241491;28;83409;-55
2022/06/05 22:31:54;;;;;;;;;;;16.60;99.90;;;;;;10247551;28;83425;-56
2022/06/05 22:36:55;;;;;;;;;;;16.60;99.90;;;;;;10229376;28;83836;-53
2022/06/05 22:41:55;;;;;;;;;;;16.60;99.90;;;;;;10207279;28;83236;-53
2022/06/05 22:46:57;;;;;;;;;;;16.50;99.90;;;;;;10206682;28;83541;-52
2022/06/05 22:51:57;;;;;;;;;;;16.60;99.90;;;;;;10207922;28;83978;-54
2022/06/05 22:56:58;;;;;;;;;;;16.50;99.90;;;;;;10207005;28;83550;-54
2022/06/05 23:01:58;;;;;;;;;;;16.40;99.90;;;;;;10204195;28;83476;-52
2022/06/05 23:06:59;;;;;;;;;;;16.40;99.90;;;;;;10206828;28;83471;-54
2022/06/05 23:11:59;;;;;;;;;;;16.40;99.90;;;;;;10209966;28;84575;-55
2022/06/05 23:17:00;;;;;;;;;;;16.40;99.90;;;;;;10205118;28;84195;-50
2022/06/05 23:22:01;;;;;;;;;;;16.40;99.90;;;;;;10204765;28;84158;-54
2022/06/05 23:27:02;;;;;;;;;;;16.40;99.90;;;;;;10205673;28;83906;-50
2022/06/05 23:32:03;;;;;;;;;;;16.40;99.90;;;;;;10204732;28;83911;-53
2022/06/05 23:37:04;;;;;;;;;;;16.40;99.90;;;;;;10203356;28;86553;-53
2022/06/05 23:42:05;;;;;;;;;;;16.40;99.90;;;;;;10206360;28;84234;-53
2022/06/05 23:47:06;;;;;;;;;;;16.40;99.90;;;;;;10204939;28;83317;-52
2022/06/05 23:52:07;;;;;;;;;;;16.40;99.90;;;;;;10205314;28;83282;-49
